Tiempo atmosférico en la estación meteorológica de Teror, Las Palmas (683 m.)



Fecha
DESCASC
Temp. máxima en grados centígrados (hora)
DESCASC
Temp. mínima en grados centígrados (hora)
DESCASC
Temp. media en grados centígrados
DESCASC
Racha de viento máxima en m/sg (hora)
DESCASC
Velocidad máxima media en intervalos de 10 minutos(hora)
DESCASC
Precipitaciones diarias en mm
DESCASC
Precipitaciones de 00:00 a 06:00 en mm
DESCASC
Precipitaciones de 06:00 a 12:00 en mm
DESCASC
Precipitaciones de 12:00 a 18:00 en mm
DESCASC
Precipitaciones de 18:00 a 24:00 en mm
DESCASC
31-05-2020 22.7 (13:20) 14.1 (22:40) 18.4 8.33 (13:30) 4.44 (14:00) 0 0 0 0 0
30-05-2020 19.1 (11:50) 14.2 (01:00) 16.7 6.67 (17:30) 3.33 (01:00) 0 0 0 0 0
29-05-2020 25.2 (14:50) 12.8 (06:20) 19 8.33 (14:20) 5.28 (16:20) 0 0 0 0 0
28-05-2020 28.8 (15:00) 17.6 (00:00) 23.2 8.33 (15:00) 4.17 (16:10) 0 0 0 0 0
27-05-2020 30.8 (09:20) 16.7 (00:00) 23.8 4.72 (15:30) 2.78 (22:50) 0 0 0 0 0
26-05-2020 33.3 (10:50) 17.1 (00:00) 25.2 4.72 (23:30) 2.78 (23:30) 0 0 0 0 0
25-05-2020 32 (11:30) 14.8 (00:00) 23.4 4.72 (10:40) 2.78 (06:50) 0 0 0 0 0
24-05-2020 30.6 (13:30) 16.1 (00:00) 23.4 5 (02:00) 2.78 (15:00) 0 0 0 0 0
23-05-2020 30 (12:50) 14.9 (00:00) 22.4 7.22 (04:40) 3.61 (08:30) 0 0 0 0 0
22-05-2020 23.5 (16:10) 7.8 (00:00) 15.7 6.11 (11:50) 3.33 (12:00) 0 0 0 0 0
21-05-2020 19.9 (14:10) 8.7 (00:00) 14.3 7.22 (15:30) 4.17 (15:10) 0 0 0 0 0
20-05-2020 22.3 (15:10) 10.8 (00:00) 16.5 6.11 (01:30) 3.06 (02:50) 0 0 0 0 0
19-05-2020 20.3 (11:30) 13.5 (00:00) 16.9 7.22 (17:50) 4.17 (18:00) 0 0 0 0 0
18-05-2020 18.3 (14:50) 10.9 (00:00) 14.6 5.83 (03:10) 3.06 (14:10) 0 0 0 0 0
17-05-2020 14.7 (10:30) 10.4 (00:00) 12.5 6.67 (00:50) 3.33 (08:20) 2.8 0.6 0 2.2 0
16-05-2020 17.8 (14:40) 11.7 (00:00) 14.7 10.83 (12:00) 5 (11:30) 0.8 0.2 0.6 0 0
15-05-2020 16.9 (15:20) 11.4 (00:00) 14.1 12.22 (09:50) 5.28 (13:30) 5.4 0 4.4 1 0
14-05-2020 19.7 (12:50) 12 (00:00) 15.9 11.67 (13:30) 6.67 (15:20) 0.2 0 0 0.2 0
13-05-2020 21.8 (12:30) 12.2 (00:00) 17 11.67 (11:30) 5 (13:00) 0 0 0 0 0
12-05-2020 19.4 (15:30) 11.7 (00:00) 15.5 12.22 (23:50) 5 (01:10) 1.4 0 1.4 0 0
11-05-2020 22 (15:20) 13.1 (00:00) 17.6 10.28 (16:30) 5 (13:00) 2.4 0 0 0 2.4
10-05-2020 21.2 (13:40) 12.8 (00:00) 17 11.11 (16:00) 6.11 (16:00) 0 0 0 0 0
09-05-2020 21 (13:20) 11.2 (00:00) 16.1 9.44 (21:40) 5.28 (06:10) 0.6 0 0 0.6 0
08-05-2020 21.1 (16:00) 9.3 (00:00) 15.2 8.33 (13:20) 4.44 (13:20) 0 0 0 0 0
07-05-2020 19.9 (15:10) 11.6 (00:00) 15.8 8.89 (14:00) 3.89 (13:10) 0 0 0 0 0
06-05-2020 19.1 (11:40) 9.4 (00:00) 14.3 5.56 (15:20) 3.06 (16:00) 0 0 0 0 0
05-05-2020 19.6 (13:10) 9 (00:00) 14.3 7.22 (15:10) 4.17 (15:10) 0 0 0 0 0
04-05-2020 18.5 (11:30) 10.8 (00:00) 14.7 5 (16:30) 2.5 (19:20) 1.4 0 0 0 1.4
03-05-2020 24.2 (15:40) 8.6 (00:00) 16.4 6.94 (05:50) 3.61 (05:50) 0 0 0 0 0

Gráficas

Temp. máximas Temp. mínimas Temp. medias Precipitaciones Rachas de viento máximas Velocidades máximas media en intervalos de 10 minutos

Datos horarios

Fecha y hora oficial Temperatura (ºC) Velocidad del viento (km/h) Dirección del viento Racha (km/h) Dirección de racha Precipitación (mm) Presión (hPa) Tendencia (hPa) Humedad (%)
2020-06-01 23:00:00 13.2 4 Sudoeste 6 Sudoeste 0 -- -- 98
2020-06-01 22:00:00 12.3 4 Sudoeste 8 Sudoeste 0 -- -- 97
2020-06-01 21:00:00 14.7 4 Noroeste 9 Nordeste 0 -- -- 95
2020-06-01 20:00:00 16.9 5 Nordeste 12 Norte 0 -- -- 93
2020-06-01 19:00:00 17.1 5 Norte 12 Norte 0 -- -- 91
2020-06-01 18:00:00 17 3 Norte 6 Norte 0.4 -- -- 92
2020-06-01 17:00:00 16.5 4 Norte 9 Nordeste 0.4 -- -- 93
2020-06-01 16:00:00 16.9 6 Nordeste 12 Nordeste 0 -- -- 90
2020-06-01 15:00:00 17.4 4 Nordeste 11 Este 0 -- -- 87
2020-06-01 14:00:00 17.5 6 Nordeste 15 Norte 0 -- -- 85
2020-06-01 13:00:00 18.4 6 Norte 19 Este 0 -- -- 82
2020-06-01 12:00:00 22.1 12 Norte 22 Norte 0 -- -- 63
2020-06-01 11:00:00 20.3 3 Nordeste 13 Nordeste 0 -- -- 61
2020-06-01 10:00:00 22.4 7 Este 17 Este 0 -- -- 55
2020-06-01 09:00:00 20.8 6 Nordeste 13 Este 0 -- -- 59
2020-06-01 08:00:00 17.7 4 Oeste 7 Oeste 0 -- -- 70
2020-06-01 07:00:00 11.9 7 Oeste 11 Oeste 0 -- -- 89
2020-06-01 06:00:00 11.5 8 Oeste 13 Oeste 0 -- -- 88
2020-06-01 05:00:00 11.8 3 Sudoeste 9 Noroeste 0 -- -- 92
2020-06-01 04:00:00 12.8 6 Oeste 13 Oeste 0 -- -- 87
2020-06-01 03:00:00 12.6 5 Oeste 10 Oeste 0 -- -- 94
2020-06-01 02:00:00 12.9 7 Oeste 12 Oeste 0 -- -- 91
2020-06-01 01:00:00 12.8 5 Oeste 11 Oeste 0 -- -- 92
2020-06-01 00:00:00 14.1 5 Noroeste 17 Noroeste 0 -- -- 86
2020-05-31 23:00:00 14.5 9 Noroeste 17 Oeste 0 -- -- 87
2020-05-31 22:00:00 15 12 Oeste 21 Oeste 0 -- -- 86
2020-05-31 21:00:00 15.4 12 Oeste 18 Oeste 0 -- -- 89
2020-05-31 20:00:00 16.7 8 Norte 16 Norte 0 -- -- 87
2020-05-31 19:00:00 20.3 10 Norte 20 Norte 0 -- -- 67
2020-05-31 18:00:00 20.1 11 Norte 25 Norte 0 -- -- 70
2020-05-31 17:00:00 21.9 12 Norte 26 Norte 0 -- -- 63
2020-05-31 16:00:00 22.4 12 Norte 30 Norte 0 -- -- 60
2020-05-31 15:00:00 22.7 14 Norte 27 Norte 0 -- -- 58
2020-05-31 14:00:00 22 16 Norte 30 Norte 0 -- -- 59
2020-05-31 13:00:00 22 14 Norte 25 Norte 0 -- -- 54
2020-05-31 12:00:00 21.7 14 Norte 23 Noroeste 0 -- -- 61
2020-05-31 11:00:00 21 5 Norte 25 Noroeste 0 -- -- 58
2020-05-31 10:00:00 20.2 10 Noroeste 28 Noroeste 0 -- -- 61
2020-05-31 09:00:00 19.2 7 Nordeste 23 Norte 0 -- -- 66
2020-05-31 08:00:00 16.8 7 Sudoeste 20 Noroeste 0 -- -- 74
2020-05-31 07:00:00 14.3 6 Oeste 23 Oeste 0 -- -- 79
2020-05-31 06:00:00 14.6 10 Sudoeste 21 Sudoeste 0 -- -- 85
2020-05-31 05:00:00 14.8 7 Sudoeste 22 Sudoeste 0 -- -- 84
2020-05-31 04:00:00 15.4 5 Oeste 20 Oeste 0 -- -- 85
2020-05-31 03:00:00 15.2 6 Sudoeste 23 Sudoeste 0 -- -- 87
2020-05-31 02:00:00 15 6 Oeste 20 Sudoeste 0 -- -- 90
2020-05-31 01:00:00 15.5 3 Este 18 Sur 0 -- -- 87
2020-05-31 00:00:00 15.1 5 Nordeste 14 Oeste 0 -- -- 88
2020-05-30 23:00:00 14.9 5 Sur 21 Sudoeste 0 -- -- 87
2020-05-30 22:00:00 14.8 4 Nordeste 18 Noroeste 0 -- -- 91
2020-05-30 21:00:00 15 6 Noroeste 17 Noroeste 0 -- -- 90
2020-05-30 20:00:00 16.1 8 Noroeste 23 Noroeste 0 -- -- 80
2020-05-30 19:00:00 17.1 11 Norte 21 Noroeste 0 -- -- 75
2020-05-30 18:00:00 18.1 5 Noroeste 24 Noroeste 0 -- -- 73
2020-05-30 17:00:00 17.4 9 Noroeste 22 Noroeste 0 -- -- 76
2020-05-30 16:00:00 16.8 10 Noroeste 18 Oeste 0 -- -- 81
2020-05-30 15:00:00 16.4 9 Noroeste 17 Norte 0 -- -- 86
2020-05-30 14:00:00 15.8 8 Noroeste 21 Nordeste 0 -- -- 90
2020-05-30 13:00:00 16.7 9 Norte 19 Norte 0 -- -- 88
2020-05-30 12:00:00 18.3 9 Norte 19 Norte 0 -- -- 77
2020-05-30 11:00:00 18.3 8 Norte 16 Noroeste 0 -- -- 78
2020-05-30 10:00:00 17.6 8 Noroeste 15 Oeste 0 -- -- 74
2020-05-30 09:00:00 16.4 5 Noroeste 13 Noroeste 0 -- -- 79
2020-05-30 08:00:00 15 6 Noroeste 12 Sudoeste 0 -- -- 86
2020-05-30 07:00:00 14.5 3 Oeste 13 Noroeste 0 -- -- 88
2020-05-30 06:00:00 14.3 6 Norte 12 Noroeste 0 -- -- 92
2020-05-30 05:00:00 14.6 5 Noroeste 15 Norte 0 -- -- 93
2020-05-30 04:00:00 14.9 5 Noroeste 11 Noroeste 0 -- -- 91
2020-05-30 03:00:00 14.7 6 Noroeste 16 Noroeste 0 -- -- 90
2020-05-30 02:00:00 14.4 7 Noroeste 23 Noroeste 0 -- -- 93
2020-05-30 01:00:00 14.2 12 Noroeste 22 Noroeste 0 -- -- 91
2020-05-30 00:00:00 14.9 8 Noroeste 18 Noroeste 0 -- -- 90
2020-05-29 23:00:00 15.1 9 Noroeste 20 Noroeste 0 -- -- 92
2020-05-29 22:00:00 15.4 6 Noroeste 18 Norte 0 -- -- 90
2020-05-29 21:00:00 15.1 5 Noroeste 21 Noroeste 0 -- -- 90
2020-05-29 20:00:00 15.9 9 Noroeste 25 Noroeste 0 -- -- 87
2020-05-29 19:00:00 18.2 14 Noroeste 24 Noroeste 0 -- -- 78
2020-05-29 18:00:00 20 16 Noroeste 28 Noroeste 0 -- -- 71
2020-05-29 17:00:00 21.2 18 Noroeste 28 Noroeste 0 -- -- 66
2020-05-29 16:00:00 22.8 18 Noroeste 30 Noroeste 0 -- -- 62
2020-05-29 15:00:00 24.4 12 Noroeste 30 Noroeste 0 -- -- 56
2020-05-29 14:00:00 23.4 15 Noroeste 26 Noroeste 0 -- -- 60
2020-05-29 13:00:00 23.6 11 Norte 25 Norte 0 -- -- 61
2020-05-29 12:00:00 24 12 Nordeste 22 Nordeste 0 -- -- 58
2020-05-29 11:00:00 21.8 9 Nordeste 15 Nordeste 0 -- -- 66
2020-05-29 10:00:00 21.4 6 Este 13 Sudeste 0 -- -- 64
2020-05-29 09:00:00 18.9 5 Sudeste 8 Sudeste 0 -- -- 70
2020-05-29 08:00:00 13.6 0 Calma 4 Nordeste 0 -- -- 84
2020-05-29 07:00:00 14.6 3 Sudoeste 7 Sudoeste 0 -- -- 30
2020-05-29 06:00:00 14.4 4 Sudeste 8 Sudeste 0 -- -- 62
2020-05-29 05:00:00 17.1 0 Calma 5 Noroeste 0 -- -- 20
2020-05-29 04:00:00 18.1 0 Calma 9 Noroeste 0 -- -- 18
2020-05-29 03:00:00 19.7 4 Noroeste 17 Oeste 0 -- -- 19
2020-05-29 02:00:00 17.7 3 Sudeste 13 Oeste 0 -- -- 21
2020-05-29 01:00:00 19.9 2 Sur 7 Sur 0 -- -- 17
2020-05-29 00:00:00 20.2 2 Sudeste 17 Oeste 0 -- -- 15
2020-05-28 23:00:00 20.4 5 Oeste 19 Noroeste 0 -- -- 17
2020-05-28 22:00:00 20.4 6 Oeste 16 Noroeste 0 -- -- 19
2020-05-28 21:00:00 20 7 Noroeste 16 Noroeste 0 -- -- 22
2020-05-28 20:00:00 21 3 Sur 24 Noroeste 0 -- -- 60
2020-05-28 19:00:00 25.6 13 Noroeste 23 Noroeste 0 -- -- 18
2020-05-28 18:00:00 28.1 9 Noroeste 22 Noroeste 0 -- -- 20
2020-05-28 17:00:00 28.2 13 Noroeste 27 Noroeste 0 -- -- 26
2020-05-28 16:00:00 28 15 Noroeste 24 Norte 0 -- -- 31
2020-05-28 15:00:00 28.8 8 Nordeste 30 Nordeste 0 -- -- 39
2020-05-28 14:00:00 26.5 10 Nordeste 21 Nordeste 0 -- -- 50
2020-05-28 13:00:00 28 10 Este 19 Nordeste 0 -- -- 40
2020-05-28 12:00:00 27.4 10 Nordeste 19 Nordeste 0 -- -- 31
2020-05-28 11:00:00 28.2 9 Norte 19 Noroeste 0 -- -- 26
2020-05-28 10:00:00 27.2 11 Noroeste 20 Noroeste 0 -- -- 24
2020-05-28 09:00:00 25.8 10 Noroeste 19 Noroeste 0 -- -- 24
2020-05-28 08:00:00 22.4 2 Sur 8 Noroeste 0 -- -- 30
2020-05-28 07:00:00 18.4 5 Oeste 15 Noroeste 0 -- -- 25
2020-05-28 06:00:00 19.3 9 Noroeste 16 Oeste 0 -- -- 23
2020-05-28 05:00:00 18.2 8 Oeste 12 Noroeste 0 -- -- 31
2020-05-28 04:00:00 17.9 6 Oeste 14 Noroeste 0 -- -- 34
2020-05-28 03:00:00 18 8 Oeste 13 Oeste 0 -- -- 35
2020-05-28 02:00:00 18.6 6 Oeste 14 Noroeste 0 -- -- 31
2020-05-28 01:00:00 19.8 8 Oeste 15 Noroeste 0 -- -- 32
2020-05-28 00:00:00 18.1 8 Oeste 16 Oeste 0 -- -- 38
2020-05-27 23:00:00 19.6 8 Oeste 15 Noroeste 0 -- -- 32
2020-05-27 22:00:00 17.1 7 Oeste 12 Noroeste 0 -- -- 35
2020-05-27 21:00:00 18 2 Sudoeste 8 Oeste 0 -- -- 36
2020-05-27 20:00:00 18.7 3 Oeste 8 Oeste 0 -- -- 44
2020-05-27 19:00:00 27.3 6 Norte 9 Nordeste 0 -- -- 28
2020-05-27 18:00:00 27.9 6 Nordeste 14 Este 0 -- -- 30
2020-05-27 17:00:00 28.7 6 Nordeste 15 Este 0 -- -- 32
2020-05-27 16:00:00 28.8 8 Nordeste 17 Nordeste 0 -- -- 32
2020-05-27 15:00:00 28 8 Nordeste 16 Nordeste 0 -- -- 35
2020-05-27 14:00:00 26.8 8 Nordeste 15 Nordeste 0 -- -- 48
2020-05-27 13:00:00 27.4 6 Nordeste 13 Este 0 -- -- 37
2020-05-27 12:00:00 26.6 7 Nordeste 13 Nordeste 0 -- -- 45
2020-05-27 11:00:00 27.6 8 Nordeste 12 Nordeste 0 -- -- 32
2020-05-27 10:00:00 30.4 5 Nordeste 9 Nordeste 0 -- -- 14
2020-05-27 09:00:00 30.2 3 Nordeste 5 Nordeste 0 -- -- 13
2020-05-27 08:00:00 22.9 4 Oeste 9 Oeste 0 -- -- 40
2020-05-27 07:00:00 18.1 6 Oeste 11 Oeste 0 -- -- 36
2020-05-27 06:00:00 17.2 9 Oeste 11 Oeste 0 -- -- 34
2020-05-27 05:00:00 17.8 9 Oeste 13 Oeste 0 -- -- 32
2020-05-27 04:00:00 17.9 9 Oeste 12 Oeste 0 -- -- 32
2020-05-27 03:00:00 19.1 9 Oeste 12 Oeste 0 -- -- 29
2020-05-27 02:00:00 19.4 9 Oeste 12 Oeste 0 -- -- 26
2020-05-27 01:00:00 18.5 7 Oeste 14 Noroeste 0 -- -- 31
2020-05-27 00:00:00 18.9 8 Oeste 17 Noroeste 0 -- -- 27
2020-05-26 23:00:00 19.4 9 Noroeste 15 Noroeste 0 -- -- 32
2020-05-26 22:00:00 22.2 5 Norte 17 Noroeste 0 -- -- 43
2020-05-26 21:00:00 20.6 0 Calma 7 Norte 0 -- -- 39
2020-05-26 20:00:00 23.5 2 Oeste 8 Sudoeste 0 -- -- 34
2020-05-26 19:00:00 28.3 2 Este 10 Norte 0 -- -- 52
2020-05-26 18:00:00 29.5 6 Norte 13 Norte 0 -- -- 47
2020-05-26 17:00:00 30.6 8 Nordeste 12 Nordeste 0 -- -- 39
2020-05-26 16:00:00 31.1 7 Norte 12 Norte 0 -- -- 41
2020-05-26 15:00:00 31 5 Norte 15 Nordeste 0 -- -- 36
2020-05-26 14:00:00 29.8 7 Norte 17 Este 0 -- -- 46
2020-05-26 13:00:00 32.3 8 Este 15 Sudeste 0 -- -- 32
2020-05-26 12:00:00 31.6 8 Este 15 Sudeste 0 -- -- 32
2020-05-26 11:00:00 31.4 7 Este 14 Nordeste 0 -- -- 34
2020-05-26 10:00:00 33 8 Este 15 Este 0 -- -- 18
2020-05-26 09:00:00 31.3 6 Sudeste 14 Sur 0 -- -- 17
2020-05-26 08:00:00 23 5 Sudoeste 9 Sudoeste 0 -- -- 26
2020-05-26 07:00:00 17.8 0 Calma 10 Sur 0 -- -- 34
2020-05-26 06:00:00 18.1 5 Sudoeste 12 Sur 0 -- -- 36
2020-05-26 05:00:00 18.3 5 Sudoeste 10 Sur 0 -- -- 35
2020-05-26 04:00:00 17.8 5 Sudoeste 9 Sudoeste 0 -- -- 33
2020-05-26 03:00:00 18.7 5 Sudoeste 10 Oeste 0 -- -- 36
2020-05-26 02:00:00 17.8 6 Oeste 10 Noroeste 0 -- -- 36
2020-05-26 01:00:00 17.7 6 Oeste 10 Oeste 0 -- -- 36
2020-05-26 00:00:00 17.2 6 Oeste 10 Oeste 0 -- -- 39
2020-05-25 23:00:00 17.6 7 Oeste 11 Oeste 0 -- -- 35
2020-05-25 22:00:00 17.1 8 Oeste 14 Oeste 0 -- -- 39
2020-05-25 21:00:00 17.1 9 Oeste 10 Oeste 0 -- -- 44
2020-05-25 20:00:00 18.4 3 Oeste 6 Oeste 0 -- -- 46
2020-05-25 19:00:00 27.6 3 Norte 10 Este 0 -- -- 30
2020-05-25 18:00:00 28.1 5 Nordeste 11 Nordeste 0 -- -- 37
2020-05-25 17:00:00 27.1 7 Nordeste 14 Nordeste 0 -- -- 38
2020-05-25 16:00:00 28.9 6 Nordeste 14 Nordeste 0 -- -- 40
2020-05-25 15:00:00 29.1 7 Nordeste 13 Este 0 -- -- 45
2020-05-25 14:00:00 28.5 7 Nordeste 14 Nordeste 0 -- -- 48
2020-05-25 13:00:00 31.5 7 Este 17 Este 0 -- -- 36
2020-05-25 12:00:00 31.8 10 Este 16 Este 0 -- -- 33
2020-05-25 11:00:00 30.8 10 Sudeste 17 Este 0 -- -- 26
2020-05-25 10:00:00 29.9 6 Este 12 Sudeste 0 -- -- 26
2020-05-25 09:00:00 30.7 4 Sudeste 11 Este 0 -- -- 24
2020-05-25 08:00:00 24.4 2 Sur 14 Sudoeste 0 -- -- 33
2020-05-25 07:00:00 19.1 9 Sudoeste 13 Sudoeste 0 -- -- 39
2020-05-25 06:00:00 15.7 4 Noroeste 9 Oeste 0 -- -- 54
2020-05-25 05:00:00 16.4 4 Sudoeste 10 Oeste 0 -- -- 52
2020-05-25 04:00:00 17.2 8 Oeste 12 Oeste 0 -- -- 50
2020-05-25 03:00:00 17.1 6 Oeste 11 Oeste 0 -- -- 53
2020-05-25 02:00:00 17.6 8 Oeste 10 Oeste 0 -- -- 46
2020-05-25 01:00:00 17.3 8 Oeste 11 Oeste 0 -- -- 50
2020-05-25 00:00:00 16.9 8 Oeste 10 Oeste 0 -- -- 53
2020-05-24 23:00:00 16.5 4 Oeste 8 Oeste 0 -- -- 54
2020-05-24 22:00:00 17.1 3 Sudoeste 10 Oeste 0 -- -- 51
2020-05-24 21:00:00 17 5 Sudoeste 8 Sudoeste 0 -- -- 50
2020-05-24 20:00:00 21 0 Calma 9 Noroeste 0 -- -- 51
2020-05-24 19:00:00 28.7 3 Nordeste 10 Nordeste 0 -- -- 26
2020-05-24 18:00:00 28.7 6 Nordeste 13 Nordeste 0 -- -- 27
2020-05-24 17:00:00 29.1 6 Nordeste 15 Nordeste 0 -- -- 31
2020-05-24 16:00:00 28.5 8 Nordeste 15 Nordeste 0 -- -- 33
2020-05-24 15:00:00 28.5 10 Nordeste 17 Nordeste 0 -- -- 38
2020-05-24 14:00:00 29.6 10 Nordeste 16 Nordeste 0 -- -- 31
2020-05-24 13:00:00 29.6 9 Este 16 Este 0 -- -- 29
2020-05-24 12:00:00 29.7 8 Este 15 Este 0 -- -- 30
2020-05-24 11:00:00 27.9 6 Nordeste 13 Este 0 -- -- 35
2020-05-24 10:00:00 28.4 5 Sudeste 9 Sudeste 0 -- -- 24
2020-05-24 09:00:00 26.4 3 Nordeste 7 Este 0 -- -- 26
2020-05-24 08:00:00 21.7 2 Sudoeste 10 Este 0 -- -- 39
2020-05-24 07:00:00 18.2 7 Sudoeste 11 Sudoeste 0 -- -- 40
2020-05-24 06:00:00 17.2 5 Sur 15 Sur 0 -- -- 45
2020-05-24 05:00:00 18.2 6 Sur 14 Sur 0 -- -- 44
2020-05-24 04:00:00 18.6 8 Sudoeste 13 Sudoeste 0 -- -- 45
2020-05-24 03:00:00 18.1 4 Sur 13 Sudeste 0 -- -- 48
2020-05-24 02:00:00 19.1 6 Sur 18 Sudeste 0 -- -- 43
2020-05-24 01:00:00 18.8 4 Sudeste 10 Sudeste 0 -- -- 45
2020-05-24 00:00:00 17.4 3 Sur 9 Noroeste 0 -- -- 52
2020-05-23 23:00:00 16.8 3 Sudoeste 9 Noroeste 0 -- -- 59
2020-05-23 22:00:00 18.7 8 Oeste 11 Oeste 0 -- -- 42
2020-05-23 21:00:00 19.2 5 Oeste 11 Noroeste 0 -- -- 46
2020-05-23 20:00:00 20 4 Oeste 12 Este 0 -- -- 63
2020-05-23 19:00:00 26.4 3 Sur 10 Oeste 0 -- -- 60
2020-05-23 18:00:00 25.2 4 Este 12 Nordeste 0 -- -- 62
2020-05-23 17:00:00 27.1 4 Este 12 Este 0 -- -- 55
2020-05-23 16:00:00 24.9 6 Nordeste 16 Este 0 -- -- 62
2020-05-23 15:00:00 25.4 6 Este 17 Este 0 -- -- 60
2020-05-23 14:00:00 26.7 9 Nordeste 13 Este 0 -- -- 54
2020-05-23 13:00:00 29.3 9 Este 16 Este 0 -- -- 42
2020-05-23 12:00:00 29.3 8 Este 19 Este 0 -- -- 39
2020-05-23 11:00:00 28.6 8 Este 21 Este 0 -- -- 34
2020-05-23 10:00:00 29.1 13 Sudeste 23 Sur 0 -- -- 28
2020-05-23 09:00:00 27.1 12 Sudeste 26 Sudeste 0 -- -- 28
2020-05-23 08:00:00 23.1 9 Sur 17 Sur 0 -- -- 36
2020-05-23 07:00:00 19.8 6 Sur 20 Sur 0 -- -- 42
2020-05-23 06:00:00 20.6 6 Este 15 Sudoeste 0 -- -- 42
2020-05-23 05:00:00 19.6 9 Sur 26 Sur 0 -- -- 48
2020-05-23 04:00:00 16.9 6 Sur 21 Sudoeste 0 -- -- 62
2020-05-23 03:00:00 16 6 Sudeste 18 Sur 0 -- -- 71
2020-05-23 02:00:00 15.5 6 Oeste 15 Oeste 0 -- -- 71
2020-05-23 01:00:00 15.8 8 Noroeste 15 Noroeste 0 -- -- 67
2020-05-23 00:00:00 15.6 5 Oeste 16 Oeste 0 -- -- 69
2020-05-22 23:00:00 15.5 8 Oeste 14 Noroeste 0 -- -- 68
2020-05-22 22:00:00 14 3 Oeste 10 Noroeste 0 -- -- 80
2020-05-22 21:00:00 14.9 5 Noroeste 11 Sudoeste 0 -- -- 75
2020-05-22 20:00:00 17.1 3 Oeste 10 Norte 0 -- -- 73
2020-05-22 19:00:00 23.2 4 Nordeste 13 Nordeste 0 -- -- 55
2020-05-22 18:00:00 22.4 6 Nordeste 12 Nordeste 0 -- -- 63
2020-05-22 17:00:00 23 6 Nordeste 16 Este 0 -- -- 56
2020-05-22 16:00:00 23.1 6 Nordeste 15 Este 0 -- -- 55
2020-05-22 15:00:00 22.4 6 Nordeste 15 Nordeste 0 -- -- 61
2020-05-22 14:00:00 21.6 8 Nordeste 14 Nordeste 0 -- -- 62
2020-05-22 13:00:00 21.8 9 Nordeste 15 Nordeste 0 -- -- 61
2020-05-22 12:00:00 20.7 12 Nordeste 22 Nordeste 0 -- -- 64
2020-05-22 11:00:00 19.8 10 Norte 21 Nordeste 0 -- -- 64
2020-05-22 10:00:00 18.3 10 Nordeste 15 Nordeste 0 -- -- 73
2020-05-22 09:00:00 17.1 7 Norte 18 Noroeste 0 -- -- 74
2020-05-22 08:00:00 12.3 4 Noroeste 10 Norte 0 -- -- 100
2020-05-22 07:00:00 9.2 6 Oeste 10 Noroeste 0 -- -- 99
2020-05-22 06:00:00 8.1 4 Noroeste 8 Noroeste 0 -- -- 98
2020-05-22 05:00:00 8.3 4 Noroeste 8 Oeste 0 -- -- 99
2020-05-22 04:00:00 8.4 2 Oeste 9 Oeste 0 -- -- 98
2020-05-22 03:00:00 9.5 4 Oeste 14 Noroeste 0 -- -- 98
2020-05-22 02:00:00 9.6 6 Noroeste 10 Oeste 0 -- -- 97
2020-05-22 01:00:00 10.5 6 Noroeste 10 Oeste 0 -- -- 96
2020-05-22 00:00:00 11.4 5 Noroeste 12 Noroeste 0 -- -- 94
2020-05-21 23:00:00 12.5 6 Noroeste 17 Noroeste 0 -- -- 93
2020-05-21 22:00:00 12.6 5 Oeste 13 Oeste 0 -- -- 91
2020-05-21 21:00:00 12.8 4 Noroeste 13 Oeste 0 -- -- 89
2020-05-21 20:00:00 14.1 9 Noroeste 21 Norte 0 -- -- 84
2020-05-21 19:00:00 17.3 10 Norte 23 Norte 0 -- -- 75
2020-05-21 18:00:00 18.6 10 Norte 24 Norte 0 -- -- 68
2020-05-21 17:00:00 18.8 12 Norte 25 Noroeste 0 -- -- 68
2020-05-21 16:00:00 19.1 13 Norte 26 Noroeste 0 -- -- 65
2020-05-21 15:00:00 19 14 Norte 25 Norte 0 -- -- 66
2020-05-21 14:00:00 19.6 13 Norte 23 Norte 0 -- -- 65
2020-05-21 13:00:00 19.5 9 Norte 22 Norte 0 -- -- 63
2020-05-21 12:00:00 18.6 10 Nordeste 24 Norte 0 -- -- 68
2020-05-21 11:00:00 18.9 13 Norte 21 Norte 0 -- -- 68
2020-05-21 10:00:00 18.9 7 Nordeste 13 Nordeste 0 -- -- 66
2020-05-21 09:00:00 16.7 6 Norte 14 Norte 0 -- -- 75
2020-05-21 08:00:00 13 7 Noroeste 13 Noroeste 0 -- -- 91
2020-05-21 07:00:00 9.2 7 Oeste 13 Oeste 0 -- -- 92
2020-05-21 06:00:00 10.5 6 Oeste 13 Oeste 0 -- -- 94
2020-05-21 05:00:00 11.3 5 Noroeste 12 Oeste 0 -- -- 97
2020-05-21 04:00:00 9.6 5 Oeste 11 Oeste 0 -- -- 94
2020-05-21 03:00:00 10.2 5 Oeste 10 Oeste 0 -- -- 75
2020-05-21 02:00:00 11.5 3 Oeste 8 Sudoeste 0 -- -- 61
2020-05-21 01:00:00 11.5 3 Noroeste 12 Norte 0 -- -- 61
2020-05-21 00:00:00 13.8 4 Sur 14 Sur 0 -- -- 56
2020-05-20 23:00:00 11.8 4 Sudoeste 14 Nordeste 0 -- -- 72
2020-05-20 22:00:00 12.4 5 Sur 10 Sudoeste 0 -- -- 71
2020-05-20 21:00:00 12.8 4 Noroeste 10 Oeste 0 -- -- 80
2020-05-20 20:00:00 14.9 3 Noroeste 8 Oeste 0 -- -- 77
2020-05-20 19:00:00 21.5 5 Nordeste 12 Nordeste 0 -- -- 54
2020-05-20 18:00:00 21.8 7 Norte 13 Norte 0 -- -- 49
2020-05-20 17:00:00 21.6 7 Norte 16 Nordeste 0 -- -- 54
2020-05-20 16:00:00 21.9 8 Norte 20 Norte 0 -- -- 53
2020-05-20 15:00:00 21.6 8 Norte 19 Norte 0 -- -- 56
2020-05-20 14:00:00 20.8 10 Nordeste 21 Norte 0 -- -- 63
2020-05-20 13:00:00 21.4 10 Nordeste 20 Nordeste 0 -- -- 67
2020-05-20 12:00:00 20.9 8 Nordeste 15 Norte 0 -- -- 68
2020-05-20 11:00:00 21.3 7 Nordeste 14 Nordeste 0 -- -- 67
2020-05-20 10:00:00 20.4 6 Nordeste 12 Norte 0 -- -- 66
2020-05-20 09:00:00 19.9 3 Nordeste 12 Noroeste 0 -- -- 61
2020-05-20 08:00:00 14 3 Sudoeste 14 Oeste 0 -- -- 88
2020-05-20 07:00:00 11.1 4 Oeste 15 Noroeste 0 -- -- 95
2020-05-20 06:00:00 10.8 7 Noroeste 15 Noroeste 0 -- -- 95
2020-05-20 05:00:00 12.4 5 Oeste 18 Oeste 0 -- -- 90
2020-05-20 04:00:00 13.9 6 Noroeste 18 Oeste 0 -- -- 93
2020-05-20 03:00:00 14.2 8 Oeste 20 Oeste 0 -- -- 93
2020-05-20 02:00:00 12.8 3 Sur 22 Oeste 0 -- -- 91
2020-05-20 01:00:00 13.7 6 Oeste 15 Oeste 0 -- -- 94
2020-05-20 00:00:00 14.5 0 Calma 16 Oeste 0 -- -- 92
2020-05-19 23:00:00 14.2 6 Noroeste 18 Noroeste 0 -- -- 92
2020-05-19 22:00:00 14.2 7 Norte 23 Noroeste 0 -- -- 94
2020-05-19 21:00:00 14.6 14 Noroeste 25 Noroeste 0 -- -- 90
2020-05-19 20:00:00 15 9 Noroeste 22 Noroeste 0 -- -- 91
2020-05-19 19:00:00 16.4 7 Norte 23 Noroeste 0 -- -- 86
2020-05-19 18:00:00 17.2 15 Noroeste 26 Noroeste 0 -- -- 82
2020-05-19 17:00:00 17.3 11 Noroeste 21 Norte 0 -- -- 85
2020-05-19 16:00:00 18.3 13 Noroeste 21 Norte 0 -- -- 77
2020-05-19 15:00:00 19.5 12 Norte 22 Norte 0 -- -- 76
2020-05-19 14:00:00 17.6 10 Norte 19 Norte 0 -- -- 82
2020-05-19 13:00:00 18.9 10 Norte 19 Norte 0 -- -- 78
2020-05-19 12:00:00 19.4 10 Norte 21 Norte 0 -- -- 75
2020-05-19 11:00:00 19.3 9 Norte 20 Norte 0 -- -- 75
2020-05-19 10:00:00 15.2 4 Noroeste 14 Norte 0 -- -- 95
2020-05-19 09:00:00 14.4 5 Noroeste 15 Noroeste 0 -- -- 95
2020-05-19 08:00:00 14.1 10 Noroeste 21 Noroeste 0 -- -- 96
2020-05-19 07:00:00 14.1 9 Noroeste 22 Oeste 0 -- -- 96
2020-05-19 06:00:00 14.2 10 Noroeste 24 Noroeste 0 -- -- 95
2020-05-19 05:00:00 14 5 Noroeste 15 Noroeste 0 -- -- 96
2020-05-19 04:00:00 13.8 7 Noroeste 16 Oeste 0 -- -- 94
2020-05-19 03:00:00 13.8 8 Noroeste 16 Noroeste 0 -- -- 96
2020-05-19 02:00:00 13.7 7 Noroeste 13 Noroeste 0 -- -- 95
2020-05-19 01:00:00 13.9 7 Noroeste 15 Noroeste 0 -- -- 96
2020-05-19 00:00:00 14.2 8 Noroeste 17 Noroeste 0 -- -- 97
2020-05-18 23:00:00 14 9 Noroeste 19 Noroeste 0 -- -- 97
2020-05-18 22:00:00 14.1 10 Noroeste 20 Noroeste 0 -- -- 97
2020-05-18 21:00:00 14 9 Noroeste 17 Noroeste 0 -- -- 96
2020-05-18 20:00:00 14.1 9 Norte 20 Noroeste 0 -- -- 96
2020-05-18 19:00:00 14.6 8 Norte 17 Norte 0 -- -- 94
2020-05-18 18:00:00 14.8 7 Norte 17 Norte 0 -- -- 93
2020-05-18 17:00:00 16.5 9 Norte 19 Norte 0 -- -- 85
2020-05-18 16:00:00 15.3 9 Norte 18 Noroeste 0 -- -- 89
2020-05-18 15:00:00 17.7 10 Norte 19 Norte 0 -- -- 80
2020-05-18 14:00:00 17.1 10 Norte 18 Norte 0 -- -- 81
2020-05-18 13:00:00 16.3 6 Norte 13 Norte 0 -- -- 81
2020-05-18 12:00:00 15.6 5 Norte 14 Norte 0 -- -- 83
2020-05-18 11:00:00 14.5 6 Norte 17 Norte 0 -- -- 91
2020-05-18 10:00:00 14.3 6 Norte 12 Norte 0 -- -- 92
2020-05-18 09:00:00 13.1 6 Norte 14 Nordeste 0 -- -- 99
2020-05-18 08:00:00 12.7 3 Norte 15 Nordeste 0 -- -- 99
2020-05-18 07:00:00 10.9 6 Oeste 10 Norte 0 -- -- 98
2020-05-18 06:00:00 12.6 5 Norte 19 Nordeste 0 -- -- 99
2020-05-18 05:00:00 12.6 3 Nordeste 17 Norte 0 -- -- 98
2020-05-18 04:00:00 12.8 5 Nordeste 21 Norte 0 -- -- 98
2020-05-18 03:00:00 13 7 Nordeste 14 Nordeste 0 -- -- 98
2020-05-18 02:00:00 13 5 Este 12 Nordeste 0 -- -- 98
2020-05-18 01:00:00 12.7 4 Este 10 Norte 0 -- -- 98
2020-05-18 00:00:00 12.6 4 Nordeste 8 Este 0 -- -- 98
2020-05-17 23:00:00 12.7 4 Norte 15 Noroeste 0 -- -- 97
2020-05-17 22:00:00 12 2 Oeste 8 Oeste 0 -- -- 97
2020-05-17 21:00:00 10.5 6 Noroeste 9 Oeste 0 -- -- 95
2020-05-17 20:00:00 13.4 4 Noroeste 15 Norte 0 -- -- 87
2020-05-17 19:00:00 13.8 7 Norte 20 Norte 0 -- -- 87
2020-05-17 18:00:00 13.4 10 Norte 21 Norte 0 -- -- 91
2020-05-17 17:00:00 13.4 9 Nordeste 20 Nordeste 0 -- -- 94
2020-05-17 16:00:00 13.3 9 Nordeste 20 Nordeste 0.2 -- -- 96
2020-05-17 15:00:00 13.5 3 Este 11 Norte 1.4 -- -- 95
2020-05-17 14:00:00 13.5 0 Calma 15 Norte 0.4 -- -- 92
2020-05-17 13:00:00 13.3 8 Norte 18 Norte 0.2 -- -- 94
2020-05-17 12:00:00 14.1 8 Norte 19 Nordeste 0 -- -- 80
2020-05-17 11:00:00 14.2 10 Norte 17 Norte 0 -- -- 82
2020-05-17 10:00:00 13.9 9 Nordeste 16 Norte 0 -- -- 87
2020-05-17 09:00:00 13.2 8 Nordeste 19 Este 0 -- -- 93
2020-05-17 08:00:00 12.7 9 Nordeste 22 Este 0 -- -- 97
2020-05-17 07:00:00 12.3 9 Norte 19 Nordeste 0 -- -- 97
2020-05-17 06:00:00 12.2 7 Norte 17 Norte 0.6 -- -- 97
2020-05-17 05:00:00 12.7 6 Norte 17 Nordeste 0 -- -- 97
2020-05-17 04:00:00 12.3 3 Norte 16 Norte 0 -- -- 96
2020-05-17 03:00:00 12.2 6 Norte 19 Norte 0 -- -- 96
2020-05-17 02:00:00 12.4 10 Norte 19 Norte 0 -- -- 95
2020-05-17 01:00:00 12.6 9 Norte 24 Norte 0 -- -- 95
2020-05-17 00:00:00 12.6 8 Norte 15 Norte 0 -- -- 91
2020-05-16 23:00:00 12.7 8 Norte 20 Norte 0 -- -- 90
2020-05-16 22:00:00 12.6 10 Norte 21 Norte 0 -- -- 89
2020-05-16 21:00:00 12.7 12 Norte 23 Noroeste 0 -- -- 89
2020-05-16 20:00:00 13.2 9 Norte 24 Norte 0 -- -- 84
2020-05-16 19:00:00 14.6 10 Norte 26 Norte 0 -- -- 72
2020-05-16 18:00:00 14.6 12 Norte 22 Norte 0 -- -- 69
2020-05-16 17:00:00 14.7 15 Norte 28 Norte 0 -- -- 74
2020-05-16 16:00:00 16 11 Norte 26 Norte 0 -- -- 62
2020-05-16 15:00:00 16.9 13 Norte 29 Norte 0 -- -- 56
2020-05-16 14:00:00 17.3 12 Norte 24 Noroeste 0 -- -- 55
2020-05-16 13:00:00 15.9 10 Norte 28 Norte 0 -- -- 62
2020-05-16 12:00:00 15.9 15 Norte 39 Noroeste 0 -- -- 57
2020-05-16 11:00:00 17.5 14 Norte 31 Norte 0 -- -- 61
2020-05-16 10:00:00 15.7 17 Norte 35 Noroeste 0 -- -- 60
2020-05-16 09:00:00 12.3 9 Norte 23 Norte 0 -- -- 85
2020-05-16 08:00:00 11.8 13 Norte 28 Norte 0.6 -- -- 93
2020-05-16 07:00:00 12.2 5 Noroeste 21 Noroeste 0 -- -- 95
2020-05-16 06:00:00 11.8 8 Oeste 19 Oeste 0 -- -- 92
2020-05-16 05:00:00 12.2 11 Norte 24 Norte 0 -- -- 96
2020-05-16 04:00:00 12.4 10 Norte 23 Norte 0.2 -- -- 96
2020-05-16 03:00:00 12.7 13 Norte 24 Noroeste 0 -- -- 96
2020-05-16 02:00:00 12.6 10 Norte 23 Norte 0 -- -- 93
2020-05-16 01:00:00 12.9 9 Norte 22 Noroeste 0 -- -- 95
2020-05-16 00:00:00 12.9 10 Norte 21 Norte 0 -- -- 94
2020-05-15 23:00:00 12.8 8 Norte 22 Noroeste 0 -- -- 93
2020-05-15 22:00:00 12.9 11 Norte 24 Norte 0 -- -- 93
2020-05-15 21:00:00 13 7 Norte 28 Norte 0 -- -- 92
2020-05-15 20:00:00 13.2 11 Norte 23 Noroeste 0 -- -- 91
2020-05-15 19:00:00 14.8 14 Noroeste 29 Norte 0 -- -- 79
2020-05-15 18:00:00 15.3 12 Norte 32 Norte 0 -- -- 77
2020-05-15 17:00:00 14.2 14 Norte 35 Norte 0 -- -- 90
2020-05-15 16:00:00 16.9 12 Norte 31 Norte 0 -- -- 75
2020-05-15 15:00:00 15.7 14 Norte 32 Norte 0 -- -- 83
2020-05-15 14:00:00 15.5 12 Noroeste 39 Norte 0.4 -- -- 91
2020-05-15 13:00:00 14.6 11 Noroeste 31 Norte 0.6 -- -- 90
2020-05-15 12:00:00 13.8 12 Norte 35 Norte 2.2 -- -- 94
2020-05-15 11:00:00 14.2 15 Noroeste 35 Noroeste 1.6 -- -- 95
2020-05-15 10:00:00 13.9 13 Norte 44 Noroeste 0.4 -- -- 89
2020-05-15 09:00:00 14.3 12 Noroeste 33 Noroeste 0.2 -- -- 87
2020-05-15 08:00:00 12.4 8 Norte 33 Norte 0 -- -- 89
2020-05-15 07:00:00 11.8 10 Noroeste 36 Noroeste 0 -- -- 85
2020-05-15 06:00:00 11.4 6 Este 24 Norte 0 -- -- 83
2020-05-15 05:00:00 11.8 6 Nordeste 32 Noroeste 0 -- -- 80
2020-05-15 04:00:00 11.8 6 Norte 35 Norte 0 -- -- 79
2020-05-15 03:00:00 11.9 11 Noroeste 36 Noroeste 0 -- -- 78
2020-05-15 02:00:00 12.4 10 Norte 39 Norte 0 -- -- 79
2020-05-15 01:00:00 12.5 13 Norte 34 Noroeste 0 -- -- 82
2020-05-15 00:00:00 12.7 11 Norte 29 Noroeste 0 -- -- 82
2020-05-14 23:00:00 12.8 12 Norte 34 Norte 0 -- -- 84
2020-05-14 22:00:00 12.9 12 Norte 37 Nordeste 0 -- -- 84
2020-05-14 21:00:00 12.9 13 Norte 40 Oeste 0 -- -- 87
2020-05-14 20:00:00 13.6 12 Noroeste 37 Norte 0 -- -- 79
2020-05-14 19:00:00 13.9 11 Norte 35 Noroeste 0 -- -- 80
2020-05-14 18:00:00 14 12 Norte 35 Noroeste 0 -- -- 74
2020-05-14 17:00:00 13.7 12 Norte 28 Noroeste 0.2 -- -- 89
2020-05-14 16:00:00 14.7 15 Noroeste 37 Noroeste 0 -- -- 83
2020-05-14 15:00:00 17.4 18 Noroeste 37 Noroeste 0 -- -- 69
2020-05-14 14:00:00 17.3 17 Norte 42 Noroeste 0 -- -- 70
2020-05-14 13:00:00 18 18 Norte 38 Noroeste 0 -- -- 66
2020-05-14 12:00:00 18.5 18 Noroeste 37 Norte 0 -- -- 53
2020-05-14 11:00:00 17.9 18 Noroeste 37 Noroeste 0 -- -- 57
2020-05-14 10:00:00 14.8 13 Norte 32 Noroeste 0 -- -- 78
2020-05-14 09:00:00 15 13 Noroeste 36 Norte 0 -- -- 77
2020-05-14 08:00:00 13.9 8 Este 27 Noroeste 0 -- -- 72
2020-05-14 07:00:00 13.2 9 Norte 29 Noroeste 0 -- -- 73
2020-05-14 06:00:00 12.9 9 Este 36 Norte 0 -- -- 67
2020-05-14 05:00:00 12.9 10 Nordeste 32 Noroeste 0 -- -- 63
2020-05-14 04:00:00 12.1 7 Nordeste 26 Sudoeste 0 -- -- 80
2020-05-14 03:00:00 12.2 12 Noroeste 38 Norte 0 -- -- 82
2020-05-14 02:00:00 12.5 8 Noroeste 26 Oeste 0 -- -- 86
2020-05-14 01:00:00 12 8 Este 23 Oeste 0 -- -- 80
2020-05-14 00:00:00 12.2 10 Noroeste 29 Norte 0 -- -- 78
2020-05-13 23:00:00 13 11 Norte 22 Noroeste 0 -- -- 80
2020-05-13 22:00:00 12.8 9 Norte 29 Norte 0 -- -- 82
2020-05-13 21:00:00 13.3 7 Nordeste 24 Noroeste 0 -- -- 82
2020-05-13 20:00:00 13.7 8 Norte 22 Norte 0 -- -- 82
2020-05-13 19:00:00 14.4 9 Norte 27 Noroeste 0 -- -- 88
2020-05-13 18:00:00 14.9 10 Norte 27 Oeste 0 -- -- 85
2020-05-13 17:00:00 15.2 7 Norte 27 Noroeste 0 -- -- 89
2020-05-13 16:00:00 16.5 8 Noroeste 35 Norte 0 -- -- 86
2020-05-13 15:00:00 20.9 15 Norte 42 Noroeste 0 -- -- 61
2020-05-13 14:00:00 20.7 13 Norte 38 Noroeste 0 -- -- 57
2020-05-13 13:00:00 21 18 Norte 36 Norte 0 -- -- 45
2020-05-13 12:00:00 20.4 9 Este 42 Sudoeste 0 -- -- 51
2020-05-13 11:00:00 16.6 12 Norte 32 Noroeste 0 -- -- 73
2020-05-13 10:00:00 16.4 13 Norte 38 Norte 0 -- -- 78
2020-05-13 09:00:00 16.1 12 Norte 27 Norte 0 -- -- 82
2020-05-13 08:00:00 13.8 6 Sudeste 18 Sur 0 -- -- 82
2020-05-13 07:00:00 13.3 7 Sur 23 Sudeste 0 -- -- 80
2020-05-13 06:00:00 13.3 9 Nordeste 33 Norte 0 -- -- 92
2020-05-13 05:00:00 13.5 12 Norte 32 Noroeste 0 -- -- 94
2020-05-13 04:00:00 13.6 10 Norte 30 Norte 0 -- -- 93
2020-05-13 03:00:00 13.6 7 Sur 29 Sudoeste 0 -- -- 84
2020-05-13 02:00:00 13.5 8 Nordeste 31 Norte 0 -- -- 91
2020-05-13 01:00:00 13.8 14 Noroeste 36 Noroeste 0 -- -- 90
2020-05-13 00:00:00 13.9 15 Noroeste 44 Noroeste 0 -- -- 92
2020-05-12 23:00:00 13.9 14 Norte 41 Noroeste 0 -- -- 93
2020-05-12 22:00:00 14 12 Norte 40 Norte 0 -- -- 94
2020-05-12 21:00:00 13.9 15 Norte 40 Norte 0 -- -- 90
2020-05-12 20:00:00 14.4 13 Noroeste 31 Norte 0 -- -- 82
2020-05-12 19:00:00 15.1 12 Norte 28 Noroeste 0 -- -- 82
2020-05-12 18:00:00 15.6 12 Norte 32 Noroeste 0 -- -- 82
2020-05-12 17:00:00 16.6 12 Norte 29 Noroeste 0 -- -- 79
2020-05-12 16:00:00 17.4 11 Norte 32 Noroeste 0 -- -- 71
2020-05-12 15:00:00 18.5 13 Noroeste 29 Noroeste 0 -- -- 66
2020-05-12 14:00:00 17.2 15 Noroeste 32 Noroeste 0 -- -- 67
2020-05-12 13:00:00 16.8 14 Norte 34 Noroeste 0 -- -- 70
2020-05-12 12:00:00 16.3 13 Noroeste 33 Norte 0.2 -- -- 80
2020-05-12 11:00:00 14 9 Norte 29 Noroeste 0 -- -- 89
2020-05-12 10:00:00 13.7 8 Noroeste 29 Noroeste 0.6 -- -- 94
2020-05-12 09:00:00 13.3 10 Norte 31 Norte 0.6 -- -- 95
2020-05-12 08:00:00 13.1 9 Este 17 Sudoeste 0 -- -- 89
2020-05-12 07:00:00 12.4 9 Oeste 23 Sudoeste 0 -- -- 84
2020-05-12 06:00:00 11.9 9 Sudoeste 21 Sudoeste 0 -- -- 83
2020-05-12 05:00:00 12.3 6 Sudoeste 15 Norte 0 -- -- 86
2020-05-12 04:00:00 12.4 5 Este 28 Norte 0 -- -- 90
2020-05-12 03:00:00 12.9 9 Noroeste 28 Norte 0 -- -- 89
2020-05-12 02:00:00 12.8 8 Este 36 Noroeste 0 -- -- 91
2020-05-12 01:00:00 12.7 16 Noroeste 29 Noroeste 0 -- -- 92
2020-05-12 00:00:00 13.1 9 Norte 32 Noroeste 0 -- -- 97
2020-05-11 23:00:00 13.9 12 Norte 33 Noroeste 0 -- -- 98
2020-05-11 22:00:00 14.8 14 Norte 34 Norte 1.4 -- -- 98
2020-05-11 21:00:00 15.1 12 Norte 28 Noroeste 1 -- -- 95
2020-05-11 20:00:00 16.2 10 Norte 26 Norte 0 -- -- 89
2020-05-11 19:00:00 19.3 13 Noroeste 35 Noroeste 0 -- -- 65
2020-05-11 18:00:00 20 8 Norte 30 Noroeste 0 -- -- 65
2020-05-11 17:00:00 20.4 13 Norte 37 Norte 0 -- -- 64
2020-05-11 16:00:00 21.4 16 Norte 31 Norte 0 -- -- 58
2020-05-11 15:00:00 21.7 14 Norte 28 Norte 0 -- -- 63
2020-05-11 14:00:00 20.3 16 Norte 32 Noroeste 0 -- -- 65
2020-05-11 13:00:00 20.3 18 Noroeste 33 Noroeste 0 -- -- 66
2020-05-11 12:00:00 19.4 17 Noroeste 32 Oeste 0 -- -- 68
2020-05-11 11:00:00 19.4 12 Noroeste 32 Noroeste 0 -- -- 66
2020-05-11 10:00:00 17.1 12 Noroeste 28 Norte 0 -- -- 75
2020-05-11 09:00:00 14.9 13 Noroeste 37 Noroeste 0 -- -- 89
2020-05-11 08:00:00 14.2 14 Noroeste 28 Noroeste 0 -- -- 95
2020-05-11 07:00:00 14.7 10 Noroeste 20 Noroeste 0 -- -- 89
2020-05-11 06:00:00 14.4 11 Noroeste 34 Oeste 0 -- -- 89
2020-05-11 05:00:00 14.2 13 Noroeste 32 Noroeste 0 -- -- 90
2020-05-11 04:00:00 13.8 13 Noroeste 26 Noroeste 0 -- -- 95
2020-05-11 03:00:00 14 8 Oeste 28 Oeste 0 -- -- 95
2020-05-11 02:00:00 13.8 12 Noroeste 28 Oeste 0 -- -- 95
2020-05-11 01:00:00 14.1 12 Noroeste 30 Noroeste 0 -- -- 96
2020-05-11 00:00:00 14.6 10 Noroeste 33 Oeste 0 -- -- 93
2020-05-10 23:00:00 14.2 13 Noroeste 28 Oeste 0 -- -- 92
2020-05-10 22:00:00 14.1 11 Noroeste 26 Oeste 0 -- -- 89
2020-05-10 21:00:00 14.1 14 Noroeste 30 Noroeste 0 -- -- 91
2020-05-10 20:00:00 14.7 12 Oeste 33 Noroeste 0 -- -- 87
2020-05-10 19:00:00 15.6 13 Noroeste 36 Noroeste 0 -- -- 83
2020-05-10 18:00:00 16.5 21 Noroeste 36 Noroeste 0 -- -- 84
2020-05-10 17:00:00 17.7 17 Noroeste 40 Noroeste 0 -- -- 78
2020-05-10 16:00:00 18.6 22 Noroeste 40 Norte 0 -- -- 75
2020-05-10 15:00:00 20.7 15 Norte 30 Norte 0 -- -- 65
2020-05-10 14:00:00 20.8 10 Noroeste 29 Noroeste 0 -- -- 62
2020-05-10 13:00:00 19.7 14 Noroeste 29 Noroeste 0 -- -- 58
2020-05-10 12:00:00 19.7 12 Noroeste 27 Noroeste 0 -- -- 67
2020-05-10 11:00:00 16.2 11 Noroeste 30 Noroeste 0 -- -- 83
2020-05-10 10:00:00 14.5 9 Noroeste 26 Norte 0 -- -- 94
2020-05-10 09:00:00 14.9 7 Noroeste 21 Sur 0 -- -- 84
2020-05-10 08:00:00 13.4 9 Oeste 23 Oeste 0 -- -- 90
2020-05-10 07:00:00 13 8 Noroeste 16 Oeste 0 -- -- 93
2020-05-10 06:00:00 12.8 8 Oeste 18 Noroeste 0 -- -- 94
2020-05-10 05:00:00 13.3 11 Noroeste 24 Norte 0 -- -- 95
2020-05-10 04:00:00 13.9 9 Noroeste 24 Oeste 0 -- -- 92
2020-05-10 03:00:00 13.5 8 Oeste 24 Noroeste 0 -- -- 90
2020-05-10 02:00:00 13.8 11 Oeste 24 Noroeste 0 -- -- 91
2020-05-10 01:00:00 14 14 Noroeste 28 Noroeste 0 -- -- 94
2020-05-10 00:00:00 14 13 Noroeste 28 Noroeste 0 -- -- 90
2020-05-09 23:00:00 14.2 12 Noroeste 27 Noroeste 0 -- -- 89
2020-05-09 22:00:00 14.3 10 Noroeste 34 Oeste 0 -- -- 92
2020-05-09 21:00:00 14.2 13 Noroeste 27 Noroeste 0 -- -- 91
2020-05-09 20:00:00 15.1 15 Noroeste 32 Noroeste 0 -- -- 83
2020-05-09 19:00:00 16.2 10 Noroeste 30 Noroeste 0 -- -- 89
2020-05-09 18:00:00 17.1 14 Noroeste 33 Noroeste 0.2 -- -- 81
2020-05-09 17:00:00 18.6 15 Norte 32 Noroeste 0 -- -- 74
2020-05-09 16:00:00 19.1 12 Noroeste 32 Norte 0 -- -- 75
2020-05-09 15:00:00 18.1 10 Noroeste 30 Oeste 0 -- -- 79
2020-05-09 14:00:00 16.6 14 Noroeste 31 Noroeste 0.4 -- -- 91
2020-05-09 13:00:00 20.3 12 Noroeste 27 Noroeste 0 -- -- 68
2020-05-09 12:00:00 20.1 12 Norte 26 Noroeste 0 -- -- 68
2020-05-09 11:00:00 20.8 8 Norte 26 Noroeste 0 -- -- 58
2020-05-09 10:00:00 19.6 11 Noroeste 25 Oeste 0 -- -- 54
2020-05-09 09:00:00 18.5 12 Oeste 28 Oeste 0 -- -- 59
2020-05-09 08:00:00 15.3 16 Oeste 29 Oeste 0 -- -- 83
2020-05-09 07:00:00 13.2 14 Oeste 29 Noroeste 0 -- -- 90
2020-05-09 06:00:00 13.6 18 Noroeste 27 Noroeste 0 -- -- 84
2020-05-09 05:00:00 13.5 16 Oeste 24 Oeste 0 -- -- 75
2020-05-09 04:00:00 14 13 Oeste 23 Oeste 0 -- -- 61
2020-05-09 03:00:00 13 8 Oeste 15 Oeste 0 -- -- 55
2020-05-09 02:00:00 12.5 0 Calma 15 Oeste 0 -- -- 72
2020-05-09 01:00:00 12.3 2 Este 15 Oeste 0 -- -- 80
2020-05-09 00:00:00 12.2 7 Oeste 13 Noroeste 0 -- -- 86
2020-05-08 23:00:00 13.4 6 Oeste 21 Oeste 0 -- -- 85
2020-05-08 22:00:00 13.5 10 Noroeste 19 Noroeste 0 -- -- 83
2020-05-08 21:00:00 13.8 5 Noroeste 19 Noroeste 0 -- -- 91
2020-05-08 20:00:00 15 9 Noroeste 23 Norte 0 -- -- 85
2020-05-08 19:00:00 16.6 13 Noroeste 24 Norte 0 -- -- 78
2020-05-08 18:00:00 19.5 12 Norte 23 Noroeste 0 -- -- 69
2020-05-08 17:00:00 19.8 13 Norte 27 Norte 0 -- -- 66
2020-05-08 16:00:00 21.1 12 Norte 29 Norte 0 -- -- 60
2020-05-08 15:00:00 20.2 16 Norte 30 Norte 0 -- -- 63
2020-05-08 14:00:00 20.3 14 Norte 30 Norte 0 -- -- 62
2020-05-08 13:00:00 19.9 14 Norte 27 Noroeste 0 -- -- 64
2020-05-08 12:00:00 19.8 13 Norte 24 Norte 0 -- -- 67
2020-05-08 11:00:00 18.4 12 Noroeste 21 Noroeste 0 -- -- 67
2020-05-08 10:00:00 16.3 13 Noroeste 21 Noroeste 0 -- -- 75
2020-05-08 09:00:00 14.7 6 Noroeste 13 Noroeste 0 -- -- 85
2020-05-08 08:00:00 13.1 5 Oeste 12 Oeste 0 -- -- 85
2020-05-08 07:00:00 9.9 7 Oeste 12 Oeste 0 -- -- 91
2020-05-08 06:00:00 11.4 6 Oeste 14 Oeste 0 -- -- 88
2020-05-08 05:00:00 11.2 7 Oeste 17 Oeste 0 -- -- 87
2020-05-08 04:00:00 11.5 6 Oeste 15 Oeste 0 -- -- 90
2020-05-08 03:00:00 11.2 6 Oeste 15 Oeste 0 -- -- 94
2020-05-08 02:00:00 12.6 5 Oeste 15 Oeste 0 -- -- 89
2020-05-08 01:00:00 12.9 4 Noroeste 15 Noroeste 0 -- -- 92
2020-05-08 00:00:00 13.6 7 Noroeste 21 Noroeste 0 -- -- 93
2020-05-07 23:00:00 13.5 8 Noroeste 18 Oeste 0 -- -- 90
2020-05-07 22:00:00 13.9 5 Noroeste 18 Oeste 0 -- -- 90
2020-05-07 21:00:00 13.4 5 Noroeste 18 Noroeste 0 -- -- 88
2020-05-07 20:00:00 14.4 10 Noroeste 19 Norte 0 -- -- 81
2020-05-07 19:00:00 17.2 9 Norte 18 Norte 0 -- -- 70
2020-05-07 18:00:00 19.4 11 Norte 24 Norte 0 -- -- 64
2020-05-07 17:00:00 17.9 11 Norte 29 Norte 0 -- -- 70
2020-05-07 16:00:00 18.6 13 Norte 29 Norte 0 -- -- 67
2020-05-07 15:00:00 19.8 13 Norte 26 Norte 0 -- -- 62
2020-05-07 14:00:00 17.5 13 Norte 32 Nordeste 0 -- -- 71
2020-05-07 13:00:00 18 12 Norte 24 Norte 0 -- -- 75
2020-05-07 12:00:00 16.6 10 Norte 19 Norte 0 -- -- 79
2020-05-07 11:00:00 18.2 8 Norte 19 Norte 0 -- -- 71
2020-05-07 10:00:00 15.6 8 Noroeste 21 Noroeste 0 -- -- 78
2020-05-07 09:00:00 15.6 7 Oeste 20 Oeste 0 -- -- 76
2020-05-07 08:00:00 13.3 10 Oeste 20 Oeste 0 -- -- 87
2020-05-07 07:00:00 12.1 6 Noroeste 23 Oeste 0 -- -- 91
2020-05-07 06:00:00 12 9 Oeste 17 Oeste 0 -- -- 90
2020-05-07 05:00:00 12.4 8 Oeste 17 Oeste 0 -- -- 89
2020-05-07 04:00:00 11.9 9 Oeste 16 Oeste 0 -- -- 91
2020-05-07 03:00:00 12.3 7 Oeste 21 Sudoeste 0 -- -- 90
2020-05-07 02:00:00 12.2 7 Oeste 15 Oeste 0 -- -- 92
2020-05-07 01:00:00 11.8 5 Noroeste 12 Oeste 0 -- -- 91
2020-05-07 00:00:00 13.3 8 Oeste 17 Oeste 0 -- -- 89
2020-05-06 23:00:00 12 6 Oeste 14 Oeste 0 -- -- 94
2020-05-06 22:00:00 12.1 4 Oeste 11 Noroeste 0 -- -- 95
2020-05-06 21:00:00 12.4 5 Noroeste 10 Noroeste 0 -- -- 95
2020-05-06 20:00:00 14.5 7 Norte 14 Norte 0 -- -- 90
2020-05-06 19:00:00 14.8 9 Norte 15 Norte 0 -- -- 91
2020-05-06 18:00:00 15.4 6 Norte 18 Norte 0 -- -- 86
2020-05-06 17:00:00 16.4 10 Norte 17 Nordeste 0 -- -- 82
2020-05-06 16:00:00 17.1 11 Norte 20 Norte 0 -- -- 75
2020-05-06 15:00:00 17.3 10 Norte 19 Nordeste 0 -- -- 69
2020-05-06 14:00:00 18.1 10 Norte 19 Norte 0 -- -- 70
2020-05-06 13:00:00 18.8 9 Nordeste 17 Nordeste 0 -- -- 65
2020-05-06 12:00:00 17.3 8 Nordeste 15 Nordeste 0 -- -- 74
2020-05-06 11:00:00 17.6 6 Nordeste 13 Nordeste 0 -- -- 67
2020-05-06 10:00:00 15 4 Norte 8 Nordeste 0 -- -- 85
2020-05-06 09:00:00 13.9 4 Norte 9 Noroeste 0 -- -- 87
2020-05-06 08:00:00 12.1 3 Sudoeste 7 Oeste 0 -- -- 97
2020-05-06 07:00:00 10.1 4 Oeste 8 Sudoeste 0 -- -- 98
2020-05-06 06:00:00 10.3 3 Sudoeste 6 Sudoeste 0 -- -- 98
2020-05-06 05:00:00 11 4 Sudoeste 11 Sur 0 -- -- 94
2020-05-06 04:00:00 9.8 2 Sudoeste 7 Oeste 0 -- -- 98
2020-05-06 03:00:00 10.6 5 Sudoeste 9 Sudoeste 0 -- -- 94
2020-05-06 02:00:00 10.4 5 Oeste 9 Sudoeste 0 -- -- 96
2020-05-06 01:00:00 10.1 5 Oeste 8 Sudoeste 0 -- -- 98
2020-05-06 00:00:00 10 4 Sudoeste 10 Oeste 0 -- -- 98
2020-05-05 23:00:00 9.3 4 Oeste 10 Oeste 0 -- -- 95
2020-05-05 22:00:00 9.1 5 Oeste 9 Oeste 0 -- -- 91
2020-05-05 21:00:00 10.4 6 Oeste 9 Oeste 0 -- -- 92
2020-05-05 20:00:00 13.3 3 Noroeste 15 Noroeste 0 -- -- 85
2020-05-05 19:00:00 17.8 7 Norte 15 Nordeste 0 -- -- 64
2020-05-05 18:00:00 18.9 7 Norte 20 Nordeste 0 -- -- 58
2020-05-05 17:00:00 19.1 11 Norte 22 Norte 0 -- -- 59
2020-05-05 16:00:00 19.1 12 Norte 26 Norte 0 -- -- 61
2020-05-05 15:00:00 19.4 12 Norte 25 Norte 0 -- -- 66
2020-05-05 14:00:00 18.9 12 Norte 24 Norte 0 -- -- 66
2020-05-05 13:00:00 19.3 9 Norte 24 Nordeste 0 -- -- 65
2020-05-05 12:00:00 18.8 11 Norte 24 Norte 0 -- -- 63
2020-05-05 11:00:00 18.1 8 Norte 22 Noroeste 0 -- -- 64
2020-05-05 10:00:00 16.3 8 Norte 19 Noroeste 0 -- -- 76
2020-05-05 09:00:00 14.6 8 Noroeste 18 Noroeste 0 -- -- 85
2020-05-05 08:00:00 13.3 5 Noroeste 17 Norte 0 -- -- 90
2020-05-05 07:00:00 12.3 10 Noroeste 22 Oeste 0 -- -- 92
2020-05-05 06:00:00 12 8 Oeste 17 Oeste 0 -- -- 91
2020-05-05 05:00:00 11.9 6 Oeste 18 Oeste 0 -- -- 90
2020-05-05 04:00:00 12 7 Oeste 17 Oeste 0 -- -- 94
2020-05-05 03:00:00 11.5 9 Noroeste 14 Noroeste 0 -- -- 93
2020-05-05 02:00:00 11.7 8 Oeste 13 Oeste 0 -- -- 94
2020-05-05 01:00:00 13.3 3 Oeste 6 Noroeste 0 -- -- 97
2020-05-05 00:00:00 13.7 3 Noroeste 7 Noroeste 0 -- -- 97
2020-05-04 23:00:00 13.7 4 Noroeste 8 Noroeste 0 -- -- 97
2020-05-04 22:00:00 13.8 4 Norte 12 Norte 0 -- -- 96
2020-05-04 21:00:00 13.8 6 Norte 15 Noroeste 0 -- -- 96
2020-05-04 20:00:00 14.2 8 Norte 16 Norte 0.4 -- -- 96
2020-05-04 19:00:00 14.7 8 Norte 18 Noroeste 1 -- -- 97
2020-05-04 18:00:00 15.9 5 Norte 16 Norte 0 -- -- 90
2020-05-04 17:00:00 16.7 8 Norte 18 Norte 0 -- -- 83
2020-05-04 16:00:00 17.5 8 Nordeste 14 Norte 0 -- -- 74
2020-05-04 15:00:00 17.9 5 Norte 14 Norte 0 -- -- 69
2020-05-04 14:00:00 17.1 6 Norte 15 Norte 0 -- -- 76
2020-05-04 13:00:00 16.5 7 Norte 13 Noroeste 0 -- -- 84
2020-05-04 12:00:00 17.8 6 Nordeste 13 Este 0 -- -- 79
2020-05-04 11:00:00 16.1 5 Norte 10 Nordeste 0 -- -- 87
2020-05-04 10:00:00 16.4 3 Nordeste 8 Nordeste 0 -- -- 84
2020-05-04 09:00:00 15.9 3 Noroeste 10 Oeste 0 -- -- 83
2020-05-04 08:00:00 14.4 0 Calma 12 Noroeste 0 -- -- 92
2020-05-04 07:00:00 14.1 2 Noroeste 8 Norte 0 -- -- 98
2020-05-04 06:00:00 13.8 4 Noroeste 10 Norte 0 -- -- 98
2020-05-04 05:00:00 14 5 Norte 9 Nordeste 0 -- -- 98
2020-05-04 04:00:00 11.2 5 Sudoeste 10 Oeste 0 -- -- 98
2020-05-04 03:00:00 11.2 3 Oeste 10 Nordeste 0 -- -- 96
2020-05-04 02:00:00 12.2 4 Sudoeste 11 Sudoeste 0 -- -- 95
2020-05-04 01:00:00 12.1 5 Sudoeste 11 Oeste 0 -- -- 97
2020-05-04 00:00:00 13.7 4 Sudoeste 11 Sudoeste 0 -- -- 98
2020-05-03 23:00:00 13 3 Sudoeste 9 Sur 0 -- -- 98
2020-05-03 22:00:00 12 3 Sudoeste 10 Oeste 0 -- -- 96
2020-05-03 21:00:00 13 3 Sudoeste 6 Sudoeste 0 -- -- 94
2020-05-03 20:00:00 15.2 0 Calma 9 Nordeste 0 -- -- 90
2020-05-03 19:00:00 21.3 4 Nordeste 13 Nordeste 0 -- -- 69
2020-05-03 18:00:00 22.6 5 Nordeste 13 Nordeste 0 -- -- 65
2020-05-03 17:00:00 23.7 8 Nordeste 16 Este 0 -- -- 59
2020-05-03 16:00:00 23.4 8 Nordeste 19 Este 0 -- -- 63
2020-05-03 15:00:00 23.9 8 Este 17 Este 0 -- -- 60
2020-05-03 14:00:00 24 9 Este 16 Sudeste 0 -- -- 57
2020-05-03 13:00:00 22.6 5 Nordeste 20 Este 0 -- -- 64
2020-05-03 12:00:00 23.3 8 Nordeste 16 Sudeste 0 -- -- 59
2020-05-03 11:00:00 20.4 5 Nordeste 12 Nordeste 0 -- -- 68
2020-05-03 10:00:00 19.3 5 Nordeste 11 Norte 0 -- -- 71
2020-05-03 09:00:00 17.9 5 Sudeste 14 Sudeste 0 -- -- 69
2020-05-03 08:00:00 13.7 7 Sudoeste 12 Sudoeste 0 -- -- 63
2020-05-03 07:00:00 8.8 4 Norte 13 Oeste 0 -- -- 85
2020-05-03 06:00:00 13.5 5 Sudeste 25 Noroeste 0 -- -- 70
2020-05-03 05:00:00 12.4 9 Noroeste 13 Oeste 0 -- -- 50
2020-05-03 04:00:00 11.3 5 Sudoeste 12 Oeste 0 -- -- 86
2020-05-03 03:00:00 12.1 4 Sudoeste 10 Noroeste 0 -- -- 83
2020-05-03 02:00:00 12.4 5 Oeste 10 Oeste 0 -- -- 81
2020-05-03 01:00:00 12.4 5 Sudoeste 10 Oeste 0 -- -- 79
2020-05-03 00:00:00 13.7 6 Oeste 14 Sudoeste 0 -- -- 65